Glassell Park, California
Current Conditions -  °F | °C
As of 4:47 AM on Saturday 25 Oct 2014 (Local Time) from KCQT Reporting Station
Clear Clear  
Wind Chill: 17°   Ceiling: Unl
Heat Index: 17°   Visibility: 8mi
Dew Point: 15°   Wind: 0mph
Humidity: 90%   Direction: NA
Pressure: 29.98"   Gusts: NA
Location:  34.1092°N, 118.228°W
Report Text: KCQT 251147Z AUTO 00000KT 8SM CLR 17/15 A2998 RMK AO2 SLP150 T01670150 10194 20167 56013
Loading
Personal Weather Stations






























Interactive Weather Map
Tropical Storm Tracking
New forecast layout! Learn more

10-Day Weather Forecast

Advertisements
Track Severe Weather on mobile